Pittsburgh, PA

7:45 PM EST on January 31, 2015 (GMT -0500)
McCandless | Change Station
CLOSE
Current Station
Personal Weather Station
Location: Pittsburgh, PA
Elevation: 988 ft
Nearby Weather Stations
Active Advisory: Winter Weather Advisory Active Notice: Local Storm Report

Elev 988 ft 40.56 °N, 80.06 °W | Updated 2 minutes ago

Partly Cloudy
Partly Cloudy
14.9 °F
Feels Like 15 °F
N
0.0
Wind Variable Wind from NE
Gusts 0.0 mph

Today
High -- | Low -- °F
--% Chance of Precip.
Yesterday
High -- | Low -- °F
Precip. -- in
7:30 AM 5:36 PM
Waxing Gibbous, 92% visible
Pressure 30.33 in
Visibility 10.0 miles
Clouds Scattered Clouds 25000 ft
Windchill 15 °F
Dew Point 13 °F
Humidity 91%
Rainfall 0.02 in
Snow Depth Not available.
UV 0 out of 12
Pollen .10 out of 12
Air Quality Not available.
Flu Activity Not available.
METAR KPIT 312351Z 21004KT 10SM SCT250 M04/M09 A3024 RMK AO2 SLP271 T10391094 11022 21050 53004

More Conditions Fewer Conditions

Pressure 30.33 in
Visibility 10.0 miles
Clouds Scattered Clouds 25000 ft
Windchill 15 °F
Dew Point 13 °F
Humidity 91%
Rainfall 0.02 in
Snow Depth Not available.
UV 0 out of 12
Pollen .10 out of 12
Air Quality Not available.
Flu Activity Not available.
METAR KPIT 312351Z 21004KT 10SM SCT250 M04/M09 A3024 RMK AO2 SLP271 T10391094 11022 21050 53004

More Conditions Fewer Conditions

10-Day Weather Forecast

Almanac

Astronomy

Jan. 31, 2015 Rise Set
Actual Time
Civil Twilight
Nautical Twilight
Astronomical Twilight
Moon
Length of Visible Light
Length of Day
Tomorrow will be .
, % of the Moon is Illuminated

Today's Extremes

State Highs State Lows

Community

WunderPhotos

Upload Photos

1,792,265 photos uploaded!

WunderBlogs® & News

Nearby

Air Quality

  Air Quality AQ Index Pollutant
Not available.

Snow Depth

Station Depth Elevation

Earthquake Activity

City Distance Mag. Time & Date
Minimum magnitude displayed is 2.5.

Coastal Water Temperatures

Place Temperature

Nearby Weather Stations